sensor_id;sensor_type;location;lat;lon;timestamp;temperature;humidity
21061;DHT22;10689;50.836;3.266;2023-02-15T00:00:36;3.80;99.90
21061;DHT22;10689;50.836;3.266;2023-02-15T00:03:03;3.70;99.90
21061;DHT22;10689;50.836;3.266;2023-02-15T00:05:30;3.80;99.90
21061;DHT22;10689;50.836;3.266;2023-02-15T00:07:56;3.90;99.90
21061;DHT22;10689;50.836;3.266;2023-02-15T00:10:24;3.90;99.90
21061;DHT22;10689;50.836;3.266;2023-02-15T00:12:50;3.90;99.90
21061;DHT22;10689;50.836;3.266;2023-02-15T00:15:18;3.90;99.90
21061;DHT22;10689;50.836;3.266;2023-02-15T00:17:43;3.90;99.90
21061;DHT22;10689;50.836;3.266;2023-02-15T00:20:12;3.90;99.90
21061;DHT22;10689;50.836;3.266;2023-02-15T00:22:37;3.80;99.90
21061;DHT22;10689;50.836;3.266;2023-02-15T00:25:04;3.80;99.90
21061;DHT22;10689;50.836;3.266;2023-02-15T00:27:29;3.70;99.90
21061;DHT22;10689;50.836;3.266;2023-02-15T00:29:55;3.70;99.90
21061;DHT22;10689;50.836;3.266;2023-02-15T00:32:21;3.70;99.90
21061;DHT22;10689;50.836;3.266;2023-02-15T00:34:46;3.70;99.90
21061;DHT22;10689;50.836;3.266;2023-02-15T00:37:12;3.70;99.90
21061;DHT22;10689;50.836;3.266;2023-02-15T00:39:40;3.70;99.90
21061;DHT22;10689;50.836;3.266;2023-02-15T00:42:08;3.70;99.90
21061;DHT22;10689;50.836;3.266;2023-02-15T00:44:33;3.70;99.90
21061;DHT22;10689;50.836;3.266;2023-02-15T00:46:59;3.70;99.90
21061;DHT22;10689;50.836;3.266;2023-02-15T00:49:27;3.50;99.90
21061;DHT22;10689;50.836;3.266;2023-02-15T00:51:55;3.40;99.90
21061;DHT22;10689;50.836;3.266;2023-02-15T00:54:23;3.40;99.90
21061;DHT22;10689;50.836;3.266;2023-02-15T00:56:48;3.20;99.90
21061;DHT22;10689;50.836;3.266;2023-02-15T00:59:16;3.10;99.90
21061;DHT22;10689;50.836;3.266;2023-02-15T01:01:44;3.00;99.90
21061;DHT22;10689;50.836;3.266;2023-02-15T01:04:10;3.10;99.90
21061;DHT22;10689;50.836;3.266;2023-02-15T01:06:38;3.20;99.90
21061;DHT22;10689;50.836;3.266;2023-02-15T01:09:03;3.20;99.90
21061;DHT22;10689;50.836;3.266;2023-02-15T01:11:29;3.20;99.90
21061;DHT22;10689;50.836;3.266;2023-02-15T01:13:59;3.20;99.90
21061;DHT22;10689;50.836;3.266;2023-02-15T01:16:26;3.30;99.90
21061;DHT22;10689;50.836;3.266;2023-02-15T01:18:53;3.30;99.90
21061;DHT22;10689;50.836;3.266;2023-02-15T01:21:24;3.20;99.90
21061;DHT22;10689;50.836;3.266;2023-02-15T01:23:50;3.20;99.90
21061;DHT22;10689;50.836;3.266;2023-02-15T01:26:19;3.20;99.90
21061;DHT22;10689;50.836;3.266;2023-02-15T01:28:45;3.10;99.90
21061;DHT22;10689;50.836;3.266;2023-02-15T01:31:18;3.10;99.90
21061;DHT22;10689;50.836;3.266;2023-02-15T01:33:45;3.10;99.90
21061;DHT22;10689;50.836;3.266;2023-02-15T01:36:13;3.00;99.90
21061;DHT22;10689;50.836;3.266;2023-02-15T01:38:39;3.00;99.90
21061;DHT22;10689;50.836;3.266;2023-02-15T01:41:08;3.00;99.90
21061;DHT22;10689;50.836;3.266;2023-02-15T01:46:20;3.20;99.90
21061;DHT22;10689;50.836;3.266;2023-02-15T01:48:50;3.20;99.90
21061;DHT22;10689;50.836;3.266;2023-02-15T01:51:19;3.20;99.90
21061;DHT22;10689;50.836;3.266;2023-02-15T01:53:55;3.00;99.90
21061;DHT22;10689;50.836;3.266;2023-02-15T01:56:30;3.00;99.90
21061;DHT22;10689;50.836;3.266;2023-02-15T01:59:01;3.10;99.90
21061;DHT22;10689;50.836;3.266;2023-02-15T02:01:28;3.10;99.90
21061;DHT22;10689;50.836;3.266;2023-02-15T02:04:20;3.00;99.90
21061;DHT22;10689;50.836;3.266;2023-02-15T02:06:49;2.90;99.90
21061;DHT22;10689;50.836;3.266;2023-02-15T02:09:15;2.90;99.90
21061;DHT22;10689;50.836;3.266;2023-02-15T02:11:41;2.90;99.90
21061;DHT22;10689;50.836;3.266;2023-02-15T02:14:08;2.80;99.90
21061;DHT22;10689;50.836;3.266;2023-02-15T02:25:10;2.50;99.90
21061;DHT22;10689;50.836;3.266;2023-02-15T02:33:24;2.50;99.90
21061;DHT22;10689;50.836;3.266;2023-02-15T02:36:05;2.60;99.90
21061;DHT22;10689;50.836;3.266;2023-02-15T02:44:16;2.70;99.90
21061;DHT22;10689;50.836;3.266;2023-02-15T02:49:12;2.70;99.90
21061;DHT22;10689;50.836;3.266;2023-02-15T02:51:40;2.70;99.90
21061;DHT22;10689;50.836;3.266;2023-02-15T02:54:08;2.70;99.90
21061;DHT22;10689;50.836;3.266;2023-02-15T02:56:43;2.60;99.90
21061;DHT22;10689;50.836;3.266;2023-02-15T02:59:18;2.70;99.90
21061;DHT22;10689;50.836;3.266;2023-02-15T03:02:07;2.70;99.90
21061;DHT22;10689;50.836;3.266;2023-02-15T03:04:39;2.60;99.90
21061;DHT22;10689;50.836;3.266;2023-02-15T03:07:14;2.50;99.90
21061;DHT22;10689;50.836;3.266;2023-02-15T03:09:49;2.50;99.90
21061;DHT22;10689;50.836;3.266;2023-02-15T03:12:25;2.30;99.90
21061;DHT22;10689;50.836;3.266;2023-02-15T03:15:03;2.50;99.90
21061;DHT22;10689;50.836;3.266;2023-02-15T03:17:32;2.60;99.90
21061;DHT22;10689;50.836;3.266;2023-02-15T03:20:06;2.70;99.90
21061;DHT22;10689;50.836;3.266;2023-02-15T03:22:40;2.60;99.90
21061;DHT22;10689;50.836;3.266;2023-02-15T03:27:37;2.50;99.90
21061;DHT22;10689;50.836;3.266;2023-02-15T03:30:05;2.40;99.90
21061;DHT22;10689;50.836;3.266;2023-02-15T03:32:33;2.40;99.90
21061;DHT22;10689;50.836;3.266;2023-02-15T03:35:03;2.40;99.90
21061;DHT22;10689;50.836;3.266;2023-02-15T03:37:32;2.40;99.90
21061;DHT22;10689;50.836;3.266;2023-02-15T03:40:07;2.40;99.90
21061;DHT22;10689;50.836;3.266;2023-02-15T03:43:01;2.30;99.90
21061;DHT22;10689;50.836;3.266;2023-02-15T03:45:30;2.30;99.90
21061;DHT22;10689;50.836;3.266;2023-02-15T03:48:00;2.30;99.90
21061;DHT22;10689;50.836;3.266;2023-02-15T03:50:30;2.30;99.90
21061;DHT22;10689;50.836;3.266;2023-02-15T03:53:18;2.30;99.90
21061;DHT22;10689;50.836;3.266;2023-02-15T03:55:54;2.10;99.90
21061;DHT22;10689;50.836;3.266;2023-02-15T03:58:20;2.20;99.90
21061;DHT22;10689;50.836;3.266;2023-02-15T04:01:13;2.40;99.90
21061;DHT22;10689;50.836;3.266;2023-02-15T04:04:07;2.30;99.90
21061;DHT22;10689;50.836;3.266;2023-02-15T04:06:33;2.20;99.90
21061;DHT22;10689;50.836;3.266;2023-02-15T04:08:59;2.20;99.90
21061;DHT22;10689;50.836;3.266;2023-02-15T04:11:43;2.20;99.90
21061;DHT22;10689;50.836;3.266;2023-02-15T04:14:08;2.20;99.90
21061;DHT22;10689;50.836;3.266;2023-02-15T04:16:53;2.10;99.90
21061;DHT22;10689;50.836;3.266;2023-02-15T04:19:18;2.10;99.90
21061;DHT22;10689;50.836;3.266;2023-02-15T04:22:02;2.10;99.90
21061;DHT22;10689;50.836;3.266;2023-02-15T04:24:46;2.10;99.90
21061;DHT22;10689;50.836;3.266;2023-02-15T04:27:30;2.00;99.90
21061;DHT22;10689;50.836;3.266;2023-02-15T04:29:58;2.00;99.90
21061;DHT22;10689;50.836;3.266;2023-02-15T04:32:28;2.10;99.90
21061;DHT22;10689;50.836;3.266;2023-02-15T04:34:54;2.10;99.90
21061;DHT22;10689;50.836;3.266;2023-02-15T04:37:19;2.10;99.90
21061;DHT22;10689;50.836;3.266;2023-02-15T04:39:45;2.20;99.90
21061;DHT22;10689;50.836;3.266;2023-02-15T04:42:13;2.20;99.90
21061;DHT22;10689;50.836;3.266;2023-02-15T04:44:39;2.30;99.90
21061;DHT22;10689;50.836;3.266;2023-02-15T04:47:07;2.30;99.90
21061;DHT22;10689;50.836;3.266;2023-02-15T04:49:32;2.20;99.90
21061;DHT22;10689;50.836;3.266;2023-02-15T04:51:58;2.30;99.90
21061;DHT22;10689;50.836;3.266;2023-02-15T04:54:23;2.30;99.90
21061;DHT22;10689;50.836;3.266;2023-02-15T04:56:49;2.40;99.90
21061;DHT22;10689;50.836;3.266;2023-02-15T04:59:15;2.40;99.90
21061;DHT22;10689;50.836;3.266;2023-02-15T05:01:41;2.30;99.90
21061;DHT22;10689;50.836;3.266;2023-02-15T05:04:07;2.30;99.90
21061;DHT22;10689;50.836;3.266;2023-02-15T05:06:33;2.30;99.90
21061;DHT22;10689;50.836;3.266;2023-02-15T05:08:58;2.30;99.90
21061;DHT22;10689;50.836;3.266;2023-02-15T05:11:25;2.40;99.90
21061;DHT22;10689;50.836;3.266;2023-02-15T05:13:53;2.40;99.90
21061;DHT22;10689;50.836;3.266;2023-02-15T05:16:19;2.40;99.90
21061;DHT22;10689;50.836;3.266;2023-02-15T05:18:44;2.50;99.90
21061;DHT22;10689;50.836;3.266;2023-02-15T05:21:10;2.60;99.90
21061;DHT22;10689;50.836;3.266;2023-02-15T05:23:36;2.80;99.90
21061;DHT22;10689;50.836;3.266;2023-02-15T05:26:03;2.90;99.90
21061;DHT22;10689;50.836;3.266;2023-02-15T05:28:49;2.90;99.90
21061;DHT22;10689;50.836;3.266;2023-02-15T05:31:17;2.90;99.90
21061;DHT22;10689;50.836;3.266;2023-02-15T05:33:45;3.10;99.90
21061;DHT22;10689;50.836;3.266;2023-02-15T05:36:11;3.30;99.90
21061;DHT22;10689;50.836;3.266;2023-02-15T05:38:39;3.40;99.90
21061;DHT22;10689;50.836;3.266;2023-02-15T05:41:09;3.50;99.90
21061;DHT22;10689;50.836;3.266;2023-02-15T05:43:35;3.60;99.90
21061;DHT22;10689;50.836;3.266;2023-02-15T05:46:01;3.60;99.90
21061;DHT22;10689;50.836;3.266;2023-02-15T05:48:27;3.80;99.90
21061;DHT22;10689;50.836;3.266;2023-02-15T05:51:03;3.90;99.90
21061;DHT22;10689;50.836;3.266;2023-02-15T05:53:31;3.70;99.90
21061;DHT22;10689;50.836;3.266;2023-02-15T05:55:57;3.70;99.90
21061;DHT22;10689;50.836;3.266;2023-02-15T05:58:30;3.60;99.90
21061;DHT22;10689;50.836;3.266;2023-02-15T06:00:59;3.50;99.90
21061;DHT22;10689;50.836;3.266;2023-02-15T06:03:27;3.50;99.90
21061;DHT22;10689;50.836;3.266;2023-02-15T06:05:55;3.40;99.90
21061;DHT22;10689;50.836;3.266;2023-02-15T06:08:27;3.40;99.90
21061;DHT22;10689;50.836;3.266;2023-02-15T06:10:58;3.40;99.90
21061;DHT22;10689;50.836;3.266;2023-02-15T06:13:23;3.40;99.90
21061;DHT22;10689;50.836;3.266;2023-02-15T06:15:49;3.40;99.90
21061;DHT22;10689;50.836;3.266;2023-02-15T06:18:15;3.50;99.90
21061;DHT22;10689;50.836;3.266;2023-02-15T06:20:40;3.40;99.90
21061;DHT22;10689;50.836;3.266;2023-02-15T06:23:06;3.60;99.90
21061;DHT22;10689;50.836;3.266;2023-02-15T06:25:32;3.60;99.90
21061;DHT22;10689;50.836;3.266;2023-02-15T06:28:00;3.70;99.90
21061;DHT22;10689;50.836;3.266;2023-02-15T06:30:28;3.80;99.90
21061;DHT22;10689;50.836;3.266;2023-02-15T06:32:53;3.90;99.90
21061;DHT22;10689;50.836;3.266;2023-02-15T06:35:21;3.90;99.90
21061;DHT22;10689;50.836;3.266;2023-02-15T06:37:52;4.10;99.90
21061;DHT22;10689;50.836;3.266;2023-02-15T06:40:18;4.10;99.90
21061;DHT22;10689;50.836;3.266;2023-02-15T06:42:51;4.10;99.90
21061;DHT22;10689;50.836;3.266;2023-02-15T06:45:17;4.10;99.90
21061;DHT22;10689;50.836;3.266;2023-02-15T06:47:50;4.10;99.90
21061;DHT22;10689;50.836;3.266;2023-02-15T06:50:15;4.10;99.90
21061;DHT22;10689;50.836;3.266;2023-02-15T06:52:41;4.20;99.90
21061;DHT22;10689;50.836;3.266;2023-02-15T06:55:07;4.10;99.90
21061;DHT22;10689;50.836;3.266;2023-02-15T06:57:33;4.30;99.90
21061;DHT22;10689;50.836;3.266;2023-02-15T06:59:59;4.40;99.90
21061;DHT22;10689;50.836;3.266;2023-02-15T07:02:27;4.50;99.90
21061;DHT22;10689;50.836;3.266;2023-02-15T07:04:52;4.60;99.90
21061;DHT22;10689;50.836;3.266;2023-02-15T07:07:20;4.50;99.90
21061;DHT22;10689;50.836;3.266;2023-02-15T07:09:46;4.40;99.90
21061;DHT22;10689;50.836;3.266;2023-02-15T07:12:11;4.50;99.90
21061;DHT22;10689;50.836;3.266;2023-02-15T07:14:55;4.60;99.90
21061;DHT22;10689;50.836;3.266;2023-02-15T07:17:23;4.60;99.90
21061;DHT22;10689;50.836;3.266;2023-02-15T07:19:49;4.60;99.90
21061;DHT22;10689;50.836;3.266;2023-02-15T07:22:14;4.60;99.90
21061;DHT22;10689;50.836;3.266;2023-02-15T07:24:42;4.80;99.90
21061;DHT22;10689;50.836;3.266;2023-02-15T07:27:08;4.80;99.90
21061;DHT22;10689;50.836;3.266;2023-02-15T07:29:36;4.80;99.90
21061;DHT22;10689;50.836;3.266;2023-02-15T07:32:02;4.80;99.90
21061;DHT22;10689;50.836;3.266;2023-02-15T07:34:30;4.80;99.90
21061;DHT22;10689;50.836;3.266;2023-02-15T07:36:55;4.80;99.90
21061;DHT22;10689;50.836;3.266;2023-02-15T07:39:21;4.80;99.90
21061;DHT22;10689;50.836;3.266;2023-02-15T07:41:51;4.80;99.90
21061;DHT22;10689;50.836;3.266;2023-02-15T07:44:17;4.70;99.90
21061;DHT22;10689;50.836;3.266;2023-02-15T07:46:42;4.70;99.90
21061;DHT22;10689;50.836;3.266;2023-02-15T07:49:11;5.00;99.90
21061;DHT22;10689;50.836;3.266;2023-02-15T07:51:36;5.00;99.90
21061;DHT22;10689;50.836;3.266;2023-02-15T07:54:02;5.00;99.90
21061;DHT22;10689;50.836;3.266;2023-02-15T07:56:30;5.20;99.90
21061;DHT22;10689;50.836;3.266;2023-02-15T07:58:56;5.30;99.90
21061;DHT22;10689;50.836;3.266;2023-02-15T08:01:34;5.30;99.90
21061;DHT22;10689;50.836;3.266;2023-02-15T08:04:08;5.30;99.90
21061;DHT22;10689;50.836;3.266;2023-02-15T08:06:37;5.40;99.90
21061;DHT22;10689;50.836;3.266;2023-02-15T08:09:07;5.40;99.90
21061;DHT22;10689;50.836;3.266;2023-02-15T08:11:35;5.50;99.90
21061;DHT22;10689;50.836;3.266;2023-02-15T08:16:36;5.80;99.90
21061;DHT22;10689;50.836;3.266;2023-02-15T08:19:14;5.90;99.90
21061;DHT22;10689;50.836;3.266;2023-02-15T08:21:42;5.90;99.90
21061;DHT22;10689;50.836;3.266;2023-02-15T08:24:09;5.90;99.90
21061;DHT22;10689;50.836;3.266;2023-02-15T08:26:38;5.80;99.90
21061;DHT22;10689;50.836;3.266;2023-02-15T08:29:05;6.00;99.90
21061;DHT22;10689;50.836;3.266;2023-02-15T08:31:33;6.00;99.90
21061;DHT22;10689;50.836;3.266;2023-02-15T08:33:58;6.00;99.90
21061;DHT22;10689;50.836;3.266;2023-02-15T08:36:26;6.20;99.90
21061;DHT22;10689;50.836;3.266;2023-02-15T08:38:53;6.10;99.90
21061;DHT22;10689;50.836;3.266;2023-02-15T08:43:58;6.20;99.90
21061;DHT22;10689;50.836;3.266;2023-02-15T08:46:29;6.40;99.90
21061;DHT22;10689;50.836;3.266;2023-02-15T08:48:58;6.50;99.90
21061;DHT22;10689;50.836;3.266;2023-02-15T08:51:26;6.50;99.90
21061;DHT22;10689;50.836;3.266;2023-02-15T08:53:53;6.60;99.90
21061;DHT22;10689;50.836;3.266;2023-02-15T08:56:23;6.60;99.90
21061;DHT22;10689;50.836;3.266;2023-02-15T08:58:49;6.70;99.90
21061;DHT22;10689;50.836;3.266;2023-02-15T09:01:20;6.80;99.90
21061;DHT22;10689;50.836;3.266;2023-02-15T09:03:48;6.80;99.90
21061;DHT22;10689;50.836;3.266;2023-02-15T09:06:18;6.70;99.90
21061;DHT22;10689;50.836;3.266;2023-02-15T09:08:44;6.70;99.90
21061;DHT22;10689;50.836;3.266;2023-02-15T09:11:15;6.80;99.90
21061;DHT22;10689;50.836;3.266;2023-02-15T09:13:48;6.70;99.90
21061;DHT22;10689;50.836;3.266;2023-02-15T09:16:14;6.80;99.90
21061;DHT22;10689;50.836;3.266;2023-02-15T09:18:44;6.90;99.90
21061;DHT22;10689;50.836;3.266;2023-02-15T09:21:13;7.10;99.90
21061;DHT22;10689;50.836;3.266;2023-02-15T09:23:42;7.10;99.90
21061;DHT22;10689;50.836;3.266;2023-02-15T09:26:10;7.20;99.90
21061;DHT22;10689;50.836;3.266;2023-02-15T09:28:37;7.30;99.90
21061;DHT22;10689;50.836;3.266;2023-02-15T09:31:13;7.50;99.90
21061;DHT22;10689;50.836;3.266;2023-02-15T09:33:40;7.50;99.90
21061;DHT22;10689;50.836;3.266;2023-02-15T09:36:23;7.60;99.90
21061;DHT22;10689;50.836;3.266;2023-02-15T09:49:41;7.90;99.90
21061;DHT22;10689;50.836;3.266;2023-02-15T10:01:04;8.40;99.90
21061;DHT22;10689;50.836;3.266;2023-02-15T10:14:54;9.00;99.90
21061;DHT22;10689;50.836;3.266;2023-02-15T10:28:19;9.30;99.90
21061;DHT22;10689;50.836;3.266;2023-02-15T10:30:57;9.30;99.90
21061;DHT22;10689;50.836;3.266;2023-02-15T10:39:02;9.60;99.90
21061;DHT22;10689;50.836;3.266;2023-02-15T10:41:36;9.60;99.90
21061;DHT22;10689;50.836;3.266;2023-02-15T10:44:18;9.70;99.90
21061;DHT22;10689;50.836;3.266;2023-02-15T11:07:04;10.50;99.90
21061;DHT22;10689;50.836;3.266;2023-02-15T11:09:41;10.70;99.90
21061;DHT22;10689;50.836;3.266;2023-02-15T11:12:12;11.00;99.90
21061;DHT22;10689;50.836;3.266;2023-02-15T11:17:16;11.60;99.90
21061;DHT22;10689;50.836;3.266;2023-02-15T11:22:50;11.90;99.90
21061;DHT22;10689;50.836;3.266;2023-02-15T11:25:25;12.00;99.90
21061;DHT22;10689;50.836;3.266;2023-02-15T11:27:51;12.00;99.90
21061;DHT22;10689;50.836;3.266;2023-02-15T11:30:27;12.10;99.90
21061;DHT22;10689;50.836;3.266;2023-02-15T11:32:56;12.30;99.90
21061;DHT22;10689;50.836;3.266;2023-02-15T11:35:33;12.20;99.90
21061;DHT22;10689;50.836;3.266;2023-02-15T11:38:34;12.40;99.90
21061;DHT22;10689;50.836;3.266;2023-02-15T11:41:03;12.50;99.90
21061;DHT22;10689;50.836;3.266;2023-02-15T11:46:03;12.90;99.90
21061;DHT22;10689;50.836;3.266;2023-02-15T11:48:31;13.00;99.90
21061;DHT22;10689;50.836;3.266;2023-02-15T11:51:00;13.10;99.90
21061;DHT22;10689;50.836;3.266;2023-02-15T11:53:31;13.20;99.90
21061;DHT22;10689;50.836;3.266;2023-02-15T11:55:58;13.40;99.90
21061;DHT22;10689;50.836;3.266;2023-02-15T11:58:37;13.70;99.90
21061;DHT22;10689;50.836;3.266;2023-02-15T12:03:53;14.30;99.90
21061;DHT22;10689;50.836;3.266;2023-02-15T12:06:33;14.50;99.90
21061;DHT22;10689;50.836;3.266;2023-02-15T12:09:26;14.60;99.90
21061;DHT22;10689;50.836;3.266;2023-02-15T12:11:54;14.70;99.90
21061;DHT22;10689;50.836;3.266;2023-02-15T12:14:51;14.80;99.90
21061;DHT22;10689;50.836;3.266;2023-02-15T12:17:26;14.90;99.90
21061;DHT22;10689;50.836;3.266;2023-02-15T12:19:56;14.90;99.90
21061;DHT22;10689;50.836;3.266;2023-02-15T12:24:52;15.00;99.90
21061;DHT22;10689;50.836;3.266;2023-02-15T12:27:28;14.90;99.90
21061;DHT22;10689;50.836;3.266;2023-02-15T12:32:33;15.10;99.90
21061;DHT22;10689;50.836;3.266;2023-02-15T12:35:29;15.10;99.90
21061;DHT22;10689;50.836;3.266;2023-02-15T12:38:02;15.10;99.90
21061;DHT22;10689;50.836;3.266;2023-02-15T12:40:29;15.30;99.90
21061;DHT22;10689;50.836;3.266;2023-02-15T12:42:55;15.40;99.90
21061;DHT22;10689;50.836;3.266;2023-02-15T12:45:30;15.60;99.90
21061;DHT22;10689;50.836;3.266;2023-02-15T12:48:16;15.60;99.90
21061;DHT22;10689;50.836;3.266;2023-02-15T12:50:45;15.70;99.90
21061;DHT22;10689;50.836;3.266;2023-02-15T12:53:23;15.80;99.90
21061;DHT22;10689;50.836;3.266;2023-02-15T12:56:03;15.90;99.90
21061;DHT22;10689;50.836;3.266;2023-02-15T12:58:31;16.00;99.90
21061;DHT22;10689;50.836;3.266;2023-02-15T13:01:19;16.00;99.90
21061;DHT22;10689;50.836;3.266;2023-02-15T13:06:26;16.10;99.90
21061;DHT22;10689;50.836;3.266;2023-02-15T13:08:55;16.20;99.90
21061;DHT22;10689;50.836;3.266;2023-02-15T13:11:30;16.20;99.90
21061;DHT22;10689;50.836;3.266;2023-02-15T13:16:41;16.50;99.90
21061;DHT22;10689;50.836;3.266;2023-02-15T13:19:18;16.20;99.90
21061;DHT22;10689;50.836;3.266;2023-02-15T13:21:50;16.00;99.90
21061;DHT22;10689;50.836;3.266;2023-02-15T13:24:25;15.80;99.90
21061;DHT22;10689;50.836;3.266;2023-02-15T13:26:56;15.70;99.90
21061;DHT22;10689;50.836;3.266;2023-02-15T13:29:27;15.90;99.90
21061;DHT22;10689;50.836;3.266;2023-02-15T13:31:54;16.20;99.90
21061;DHT22;10689;50.836;3.266;2023-02-15T13:34:31;16.30;99.90
21061;DHT22;10689;50.836;3.266;2023-02-15T13:37:29;16.40;99.90
21061;DHT22;10689;50.836;3.266;2023-02-15T13:40:22;16.60;99.90
21061;DHT22;10689;50.836;3.266;2023-02-15T13:43:04;16.70;99.90
21061;DHT22;10689;50.836;3.266;2023-02-15T13:45:56;16.90;99.90
21061;DHT22;10689;50.836;3.266;2023-02-15T13:54:33;16.90;99.90
21061;DHT22;10689;50.836;3.266;2023-02-15T14:17:22;16.20;99.90
21061;DHT22;10689;50.836;3.266;2023-02-15T14:22:41;16.10;99.90
21061;DHT22;10689;50.836;3.266;2023-02-15T14:25:49;16.10;99.90
21061;DHT22;10689;50.836;3.266;2023-02-15T14:31:37;16.00;99.90
21061;DHT22;10689;50.836;3.266;2023-02-15T14:34:04;15.90;99.90
21061;DHT22;10689;50.836;3.266;2023-02-15T14:36:30;15.70;99.90
21061;DHT22;10689;50.836;3.266;2023-02-15T14:39:02;15.70;99.90
21061;DHT22;10689;50.836;3.266;2023-02-15T14:41:45;15.60;99.90
21061;DHT22;10689;50.836;3.266;2023-02-15T14:44:23;15.60;99.90
21061;DHT22;10689;50.836;3.266;2023-02-15T14:47:09;15.60;99.90
21061;DHT22;10689;50.836;3.266;2023-02-15T14:49:37;15.80;99.90
21061;DHT22;10689;50.836;3.266;2023-02-15T14:59:36;15.30;99.90
21061;DHT22;10689;50.836;3.266;2023-02-15T15:04:58;15.10;99.90
21061;DHT22;10689;50.836;3.266;2023-02-15T15:10:38;14.90;99.90
21061;DHT22;10689;50.836;3.266;2023-02-15T15:16:24;14.90;99.90
21061;DHT22;10689;50.836;3.266;2023-02-15T15:18:53;14.90;99.90
21061;DHT22;10689;50.836;3.266;2023-02-15T15:49:49;13.70;99.90
21061;DHT22;10689;50.836;3.266;2023-02-15T15:52:20;13.70;99.90
21061;DHT22;10689;50.836;3.266;2023-02-15T15:54:50;13.70;99.90
21061;DHT22;10689;50.836;3.266;2023-02-15T15:57:34;13.70;99.90
21061;DHT22;10689;50.836;3.266;2023-02-15T16:00:00;13.60;99.90
21061;DHT22;10689;50.836;3.266;2023-02-15T16:02:27;13.60;99.90
21061;DHT22;10689;50.836;3.266;2023-02-15T16:04:52;13.60;99.90
21061;DHT22;10689;50.836;3.266;2023-02-15T16:09:59;13.50;99.90
21061;DHT22;10689;50.836;3.266;2023-02-15T16:12:29;13.40;99.90
21061;DHT22;10689;50.836;3.266;2023-02-15T16:14:56;13.40;99.90
21061;DHT22;10689;50.836;3.266;2023-02-15T16:17:24;13.40;99.90
21061;DHT22;10689;50.836;3.266;2023-02-15T16:19:52;13.30;99.90
21061;DHT22;10689;50.836;3.266;2023-02-15T16:22:21;13.20;99.90
21061;DHT22;10689;50.836;3.266;2023-02-15T16:29:55;13.10;99.90
21061;DHT22;10689;50.836;3.266;2023-02-15T16:32:22;13.10;99.90
21061;DHT22;10689;50.836;3.266;2023-02-15T16:34:58;12.90;99.90
21061;DHT22;10689;50.836;3.266;2023-02-15T16:37:32;12.80;99.90
21061;DHT22;10689;50.836;3.266;2023-02-15T16:40:01;12.80;99.90
21061;DHT22;10689;50.836;3.266;2023-02-15T16:42:27;12.70;99.90
21061;DHT22;10689;50.836;3.266;2023-02-15T16:45:29;12.60;99.90
21061;DHT22;10689;50.836;3.266;2023-02-15T16:47:50;12.50;99.90
21061;DHT22;10689;50.836;3.266;2023-02-15T16:50:20;12.40;99.90
21061;DHT22;10689;50.836;3.266;2023-02-15T16:52:48;12.30;99.90
21061;DHT22;10689;50.836;3.266;2023-02-15T16:55:25;12.20;99.90
21061;DHT22;10689;50.836;3.266;2023-02-15T16:57:54;12.20;99.90
21061;DHT22;10689;50.836;3.266;2023-02-15T17:00:25;12.20;99.90
21061;DHT22;10689;50.836;3.266;2023-02-15T17:05:48;12.10;99.90
21061;DHT22;10689;50.836;3.266;2023-02-15T17:08:33;11.90;99.90
21061;DHT22;10689;50.836;3.266;2023-02-15T17:13:28;11.70;99.90
21061;DHT22;10689;50.836;3.266;2023-02-15T17:18:28;11.60;99.90
21061;DHT22;10689;50.836;3.266;2023-02-15T17:21:00;11.40;99.90
21061;DHT22;10689;50.836;3.266;2023-02-15T17:23:41;11.50;99.90
21061;DHT22;10689;50.836;3.266;2023-02-15T17:26:29;11.40;99.90
21061;DHT22;10689;50.836;3.266;2023-02-15T17:29:43;11.20;99.90
21061;DHT22;10689;50.836;3.266;2023-02-15T17:31:50;11.10;99.90
21061;DHT22;10689;50.836;3.266;2023-02-15T17:38:00;11.10;99.90
21061;DHT22;10689;50.836;3.266;2023-02-15T17:40:24;11.10;99.90
21061;DHT22;10689;50.836;3.266;2023-02-15T17:42:50;11.00;99.90
21061;DHT22;10689;50.836;3.266;2023-02-15T17:45:17;11.00;99.90
21061;DHT22;10689;50.836;3.266;2023-02-15T17:47:43;10.80;99.90
21061;DHT22;10689;50.836;3.266;2023-02-15T17:50:21;10.80;99.90
21061;DHT22;10689;50.836;3.266;2023-02-15T17:52:47;10.70;99.90
21061;DHT22;10689;50.836;3.266;2023-02-15T17:55:20;10.80;99.90
21061;DHT22;10689;50.836;3.266;2023-02-15T17:58:21;10.70;99.90
21061;DHT22;10689;50.836;3.266;2023-02-15T18:00:54;10.70;99.90
21061;DHT22;10689;50.836;3.266;2023-02-15T18:03:48;10.60;99.90
21061;DHT22;10689;50.836;3.266;2023-02-15T18:06:34;10.50;99.90
21061;DHT22;10689;50.836;3.266;2023-02-15T18:09:21;10.50;99.90
21061;DHT22;10689;50.836;3.266;2023-02-15T18:12:30;10.50;99.90
21061;DHT22;10689;50.836;3.266;2023-02-15T18:14:57;10.50;99.90
21061;DHT22;10689;50.836;3.266;2023-02-15T18:17:36;10.40;99.90
21061;DHT22;10689;50.836;3.266;2023-02-15T18:20:15;10.30;99.90
21061;DHT22;10689;50.836;3.266;2023-02-15T18:22:42;10.20;99.90
21061;DHT22;10689;50.836;3.266;2023-02-15T18:25:13;10.20;99.90
21061;DHT22;10689;50.836;3.266;2023-02-15T18:27:39;10.10;99.90
21061;DHT22;10689;50.836;3.266;2023-02-15T18:30:12;10.10;99.90
21061;DHT22;10689;50.836;3.266;2023-02-15T18:32:38;10.20;99.90
21061;DHT22;10689;50.836;3.266;2023-02-15T18:35:05;10.10;99.90
21061;DHT22;10689;50.836;3.266;2023-02-15T18:37:32;10.10;99.90
21061;DHT22;10689;50.836;3.266;2023-02-15T18:40:01;10.10;99.90
21061;DHT22;10689;50.836;3.266;2023-02-15T18:42:31;10.10;99.90
21061;DHT22;10689;50.836;3.266;2023-02-15T18:45:26;10.10;99.90
21061;DHT22;10689;50.836;3.266;2023-02-15T18:47:53;9.90;99.90
21061;DHT22;10689;50.836;3.266;2023-02-15T18:50:20;9.90;99.90
21061;DHT22;10689;50.836;3.266;2023-02-15T18:52:48;9.90;99.90
21061;DHT22;10689;50.836;3.266;2023-02-15T18:55:25;9.90;99.90
21061;DHT22;10689;50.836;3.266;2023-02-15T18:57:55;9.90;99.90
21061;DHT22;10689;50.836;3.266;2023-02-15T19:00:29;9.80;99.90
21061;DHT22;10689;50.836;3.266;2023-02-15T19:02:57;9.80;99.90
21061;DHT22;10689;50.836;3.266;2023-02-15T19:05:24;9.70;99.90
21061;DHT22;10689;50.836;3.266;2023-02-15T19:07:57;9.70;99.90
21061;DHT22;10689;50.836;3.266;2023-02-15T19:10:25;9.60;99.90
21061;DHT22;10689;50.836;3.266;2023-02-15T19:12:52;9.50;99.90
21061;DHT22;10689;50.836;3.266;2023-02-15T19:15:26;9.50;99.90
21061;DHT22;10689;50.836;3.266;2023-02-15T19:17:52;9.50;99.90
21061;DHT22;10689;50.836;3.266;2023-02-15T19:20:25;9.40;99.90
21061;DHT22;10689;50.836;3.266;2023-02-15T19:22:54;9.50;99.90
21061;DHT22;10689;50.836;3.266;2023-02-15T19:25:26;9.30;99.90
21061;DHT22;10689;50.836;3.266;2023-02-15T19:27:55;9.20;99.90
21061;DHT22;10689;50.836;3.266;2023-02-15T19:30:26;9.10;99.90
21061;DHT22;10689;50.836;3.266;2023-02-15T19:32:56;9.00;99.90
21061;DHT22;10689;50.836;3.266;2023-02-15T19:35:24;9.10;99.90
21061;DHT22;10689;50.836;3.266;2023-02-15T19:37:53;9.00;99.90
21061;DHT22;10689;50.836;3.266;2023-02-15T19:40:22;8.80;99.90
21061;DHT22;10689;50.836;3.266;2023-02-15T19:42:49;8.70;99.90